sensor_id;sensor_type;location;lat;lon;timestamp;pressure;altitude;pressure_sealevel;temperature;humidity
61361;BME280;47232;47.506;18.936;2022-11-25T00:01:14;98261.44;;;3.84;75.75
61361;BME280;47232;47.506;18.936;2022-11-25T00:03:41;98263.25;;;3.81;75.76
61361;BME280;47232;47.506;18.936;2022-11-25T00:08:34;98263.69;;;3.72;75.63
61361;BME280;47232;47.506;18.936;2022-11-25T00:11:00;98262.04;;;3.67;75.71
61361;BME280;47232;47.506;18.936;2022-11-25T00:13:26;98262.29;;;3.63;75.99
61361;BME280;47232;47.506;18.936;2022-11-25T00:15:51;98267.52;;;3.61;75.89
61361;BME280;47232;47.506;18.936;2022-11-25T00:18:17;98268.05;;;3.61;76.15
61361;BME280;47232;47.506;18.936;2022-11-25T00:20:42;98268.16;;;3.64;76.30
61361;BME280;47232;47.506;18.936;2022-11-25T00:23:07;98272.05;;;3.70;76.57
61361;BME280;47232;47.506;18.936;2022-11-25T00:25:33;98275.02;;;3.75;76.54
61361;BME280;47232;47.506;18.936;2022-11-25T00:27:58;98273.75;;;3.81;76.43
61361;BME280;47232;47.506;18.936;2022-11-25T00:30:24;98272.73;;;3.85;76.44
61361;BME280;47232;47.506;18.936;2022-11-25T00:32:49;98276.14;;;3.87;76.83
61361;BME280;47232;47.506;18.936;2022-11-25T00:35:15;98278.48;;;3.90;76.52
61361;BME280;47232;47.506;18.936;2022-11-25T00:37:40;98279.54;;;3.92;76.52
61361;BME280;47232;47.506;18.936;2022-11-25T00:40:06;98278.27;;;3.93;76.51
61361;BME280;47232;47.506;18.936;2022-11-25T00:42:31;98279.29;;;3.93;76.48
61361;BME280;47232;47.506;18.936;2022-11-25T00:45:16;98280.39;;;3.92;76.58
61361;BME280;47232;47.506;18.936;2022-11-25T00:47:41;98282.80;;;3.89;76.33
61361;BME280;47232;47.506;18.936;2022-11-25T00:50:07;98285.73;;;3.87;76.46
61361;BME280;47232;47.506;18.936;2022-11-25T00:52:32;98291.00;;;3.85;76.52
61361;BME280;47232;47.506;18.936;2022-11-25T00:55:01;98294.73;;;3.85;76.37
61361;BME280;47232;47.506;18.936;2022-11-25T00:57:28;98296.00;;;3.86;76.28
61361;BME280;47232;47.506;18.936;2022-11-25T00:59:54;98300.48;;;3.87;76.09
61361;BME280;47232;47.506;18.936;2022-11-25T01:02:20;98299.52;;;3.88;76.13
61361;BME280;47232;47.506;18.936;2022-11-25T01:04:45;98299.41;;;3.91;76.18
61361;BME280;47232;47.506;18.936;2022-11-25T01:07:11;98306.52;;;3.93;76.08
61361;BME280;47232;47.506;18.936;2022-11-25T01:09:37;98303.84;;;3.94;76.15
61361;BME280;47232;47.506;18.936;2022-11-25T01:12:03;98310.92;;;3.92;76.02
61361;BME280;47232;47.506;18.936;2022-11-25T01:14:29;98309.80;;;3.91;76.00
61361;BME280;47232;47.506;18.936;2022-11-25T01:16:54;98310.48;;;3.88;75.66
61361;BME280;47232;47.506;18.936;2022-11-25T01:19:20;98312.42;;;3.85;75.84
61361;BME280;47232;47.506;18.936;2022-11-25T01:21:46;98310.67;;;3.79;75.63
61361;BME280;47232;47.506;18.936;2022-11-25T01:24:13;98321.89;;;3.74;75.81
61361;BME280;47232;47.506;18.936;2022-11-25T01:26:40;98323.92;;;3.68;75.63
61361;BME280;47232;47.506;18.936;2022-11-25T01:29:14;98324.54;;;3.63;75.73
61361;BME280;47232;47.506;18.936;2022-11-25T01:31:39;98315.97;;;3.56;75.65
61361;BME280;47232;47.506;18.936;2022-11-25T01:34:09;98311.38;;;3.51;75.92
61361;BME280;47232;47.506;18.936;2022-11-25T01:36:36;98310.52;;;3.48;76.10
61361;BME280;47232;47.506;18.936;2022-11-25T01:39:03;98314.68;;;3.47;76.31
61361;BME280;47232;47.506;18.936;2022-11-25T01:41:30;98315.73;;;3.49;76.39
61361;BME280;47232;47.506;18.936;2022-11-25T01:44:12;98314.64;;;3.51;76.33
61361;BME280;47232;47.506;18.936;2022-11-25T01:46:48;98314.59;;;3.54;76.29
61361;BME280;47232;47.506;18.936;2022-11-25T01:49:29;98309.59;;;3.55;76.24
61361;BME280;47232;47.506;18.936;2022-11-25T01:52:11;98309.64;;;3.55;76.14
61361;BME280;47232;47.506;18.936;2022-11-25T01:54:58;98315.64;;;3.54;76.10
61361;BME280;47232;47.506;18.936;2022-11-25T01:57:37;98316.44;;;3.51;75.96
61361;BME280;47232;47.506;18.936;2022-11-25T02:00:06;98317.61;;;3.48;76.21
61361;BME280;47232;47.506;18.936;2022-11-25T02:02:32;98314.14;;;3.45;76.52
61361;BME280;47232;47.506;18.936;2022-11-25T02:04:58;98314.23;;;3.42;76.28
61361;BME280;47232;47.506;18.936;2022-11-25T02:07:31;98312.64;;;3.39;76.45
61361;BME280;47232;47.506;18.936;2022-11-25T02:09:59;98312.48;;;3.35;76.57
61361;BME280;47232;47.506;18.936;2022-11-25T02:12:27;98314.98;;;3.32;76.71
61361;BME280;47232;47.506;18.936;2022-11-25T02:14:54;98310.88;;;3.32;76.75
61361;BME280;47232;47.506;18.936;2022-11-25T02:17:21;98307.14;;;3.33;76.82
61361;BME280;47232;47.506;18.936;2022-11-25T02:22:29;98314.83;;;3.36;76.56
61361;BME280;47232;47.506;18.936;2022-11-25T02:25:07;98320.89;;;3.36;76.80
61361;BME280;47232;47.506;18.936;2022-11-25T02:27:33;98319.98;;;3.37;76.79
61361;BME280;47232;47.506;18.936;2022-11-25T02:29:58;98320.56;;;3.36;76.94
61361;BME280;47232;47.506;18.936;2022-11-25T02:32:23;98323.33;;;3.37;76.98
61361;BME280;47232;47.506;18.936;2022-11-25T02:34:49;98321.69;;;3.37;76.59
61361;BME280;47232;47.506;18.936;2022-11-25T02:37:16;98325.14;;;3.35;76.45
61361;BME280;47232;47.506;18.936;2022-11-25T02:39:43;98327.05;;;3.31;76.27
61361;BME280;47232;47.506;18.936;2022-11-25T02:42:11;98328.15;;;3.25;76.32
61361;BME280;47232;47.506;18.936;2022-11-25T02:44:36;98328.82;;;3.20;76.21
61361;BME280;47232;47.506;18.936;2022-11-25T02:47:02;98322.95;;;3.15;76.26
61361;BME280;47232;47.506;18.936;2022-11-25T02:49:27;98324.11;;;3.09;76.47
61361;BME280;47232;47.506;18.936;2022-11-25T02:51:53;98325.98;;;3.06;76.58
61361;BME280;47232;47.506;18.936;2022-11-25T02:54:18;98326.60;;;3.05;76.44
61361;BME280;47232;47.506;18.936;2022-11-25T02:56:44;98328.15;;;3.04;76.28
61361;BME280;47232;47.506;18.936;2022-11-25T02:59:09;98327.35;;;3.04;76.38
61361;BME280;47232;47.506;18.936;2022-11-25T03:01:35;98332.73;;;3.06;76.49
61361;BME280;47232;47.506;18.936;2022-11-25T03:04:02;98334.27;;;3.07;76.31
61361;BME280;47232;47.506;18.936;2022-11-25T03:06:29;98337.52;;;3.09;76.46
61361;BME280;47232;47.506;18.936;2022-11-25T03:08:55;98332.73;;;3.10;76.73
61361;BME280;47232;47.506;18.936;2022-11-25T03:11:21;98334.30;;;3.11;76.73
61361;BME280;47232;47.506;18.936;2022-11-25T03:14:06;98330.30;;;3.10;76.46
61361;BME280;47232;47.506;18.936;2022-11-25T03:16:31;98335.38;;;3.06;76.78
61361;BME280;47232;47.506;18.936;2022-11-25T03:18:57;98338.58;;;3.04;77.08
61361;BME280;47232;47.506;18.936;2022-11-25T03:21:22;98341.90;;;3.00;76.73
61361;BME280;47232;47.506;18.936;2022-11-25T03:23:47;98347.84;;;2.96;76.70
61361;BME280;47232;47.506;18.936;2022-11-25T03:26:13;98353.04;;;2.91;76.65
61361;BME280;47232;47.506;18.936;2022-11-25T03:28:38;98351.97;;;2.87;76.87
61361;BME280;47232;47.506;18.936;2022-11-25T03:31:09;98350.56;;;2.85;76.76
61361;BME280;47232;47.506;18.936;2022-11-25T03:33:34;98353.81;;;2.84;76.90
61361;BME280;47232;47.506;18.936;2022-11-25T03:36:00;98352.11;;;2.84;76.98
61361;BME280;47232;47.506;18.936;2022-11-25T03:38:25;98358.44;;;2.86;77.28
61361;BME280;47232;47.506;18.936;2022-11-25T03:40:51;98360.15;;;2.87;77.08
61361;BME280;47232;47.506;18.936;2022-11-25T03:43:16;98364.47;;;2.90;76.96
61361;BME280;47232;47.506;18.936;2022-11-25T03:45:41;98363.10;;;2.92;76.98
61361;BME280;47232;47.506;18.936;2022-11-25T03:48:07;98364.85;;;2.94;77.17
61361;BME280;47232;47.506;18.936;2022-11-25T03:50:33;98361.63;;;2.95;77.11
61361;BME280;47232;47.506;18.936;2022-11-25T03:52:58;98366.05;;;2.97;77.13
61361;BME280;47232;47.506;18.936;2022-11-25T03:55:23;98360.25;;;2.94;76.98
61361;BME280;47232;47.506;18.936;2022-11-25T03:57:49;98362.56;;;2.91;76.97
61361;BME280;47232;47.506;18.936;2022-11-25T04:00:14;98366.48;;;2.89;76.68
61361;BME280;47232;47.506;18.936;2022-11-25T04:02:40;98366.68;;;2.84;76.57
61361;BME280;47232;47.506;18.936;2022-11-25T04:05:06;98374.96;;;2.80;76.86
61361;BME280;47232;47.506;18.936;2022-11-25T04:07:31;98367.98;;;2.77;77.08
61361;BME280;47232;47.506;18.936;2022-11-25T04:09:56;98369.31;;;2.75;77.32
61361;BME280;47232;47.506;18.936;2022-11-25T04:12:22;98370.58;;;2.75;77.18
61361;BME280;47232;47.506;18.936;2022-11-25T04:15:07;98377.92;;;2.78;77.26
61361;BME280;47232;47.506;18.936;2022-11-25T04:17:33;98380.54;;;2.81;77.29
61361;BME280;47232;47.506;18.936;2022-11-25T04:19:58;98378.77;;;2.86;77.46
61361;BME280;47232;47.506;18.936;2022-11-25T04:22:24;98385.11;;;2.89;77.29
61361;BME280;47232;47.506;18.936;2022-11-25T04:24:49;98391.54;;;2.90;77.10
61361;BME280;47232;47.506;18.936;2022-11-25T04:27:15;98392.60;;;2.90;77.05
61361;BME280;47232;47.506;18.936;2022-11-25T04:29:40;98397.76;;;2.89;77.25
61361;BME280;47232;47.506;18.936;2022-11-25T04:32:05;98399.81;;;2.86;77.20
61361;BME280;47232;47.506;18.936;2022-11-25T04:34:31;98396.04;;;2.84;77.37
61361;BME280;47232;47.506;18.936;2022-11-25T04:36:56;98399.27;;;2.81;77.37
61361;BME280;47232;47.506;18.936;2022-11-25T04:39:24;98400.27;;;2.79;77.15
61361;BME280;47232;47.506;18.936;2022-11-25T04:41:50;98405.55;;;2.75;77.31
61361;BME280;47232;47.506;18.936;2022-11-25T04:44:35;98404.38;;;2.73;77.50
61361;BME280;47232;47.506;18.936;2022-11-25T04:47:00;98406.03;;;2.74;77.40
61361;BME280;47232;47.506;18.936;2022-11-25T04:49:26;98407.16;;;2.78;77.61
61361;BME280;47232;47.506;18.936;2022-11-25T04:51:51;98415.55;;;2.83;77.59
61361;BME280;47232;47.506;18.936;2022-11-25T04:54:17;98423.55;;;2.90;77.58
61361;BME280;47232;47.506;18.936;2022-11-25T04:56:42;98435.94;;;2.96;77.40
61361;BME280;47232;47.506;18.936;2022-11-25T04:59:07;98445.86;;;3.01;77.38
61361;BME280;47232;47.506;18.936;2022-11-25T05:01:51;98452.73;;;3.03;77.29
61361;BME280;47232;47.506;18.936;2022-11-25T05:04:17;98450.94;;;3.06;77.29
61361;BME280;47232;47.506;18.936;2022-11-25T05:06:42;98456.16;;;3.08;77.20
61361;BME280;47232;47.506;18.936;2022-11-25T05:09:07;98465.79;;;3.08;76.91
61361;BME280;47232;47.506;18.936;2022-11-25T05:11:35;98473.21;;;3.05;76.79
61361;BME280;47232;47.506;18.936;2022-11-25T05:14:00;98473.36;;;3.01;76.66
61361;BME280;47232;47.506;18.936;2022-11-25T05:16:26;98471.04;;;2.95;76.59
61361;BME280;47232;47.506;18.936;2022-11-25T05:18:54;98470.64;;;2.90;76.61
61361;BME280;47232;47.506;18.936;2022-11-25T05:21:19;98477.46;;;2.85;76.58
61361;BME280;47232;47.506;18.936;2022-11-25T05:23:45;98479.23;;;2.79;76.48
61361;BME280;47232;47.506;18.936;2022-11-25T05:26:10;98482.71;;;2.75;76.52
61361;BME280;47232;47.506;18.936;2022-11-25T05:28:36;98485.62;;;2.72;76.45
61361;BME280;47232;47.506;18.936;2022-11-25T05:31:01;98486.55;;;2.70;76.37
61361;BME280;47232;47.506;18.936;2022-11-25T05:33:27;98485.98;;;2.69;76.46
61361;BME280;47232;47.506;18.936;2022-11-25T05:36:00;98491.23;;;2.69;76.42
61361;BME280;47232;47.506;18.936;2022-11-25T05:38:27;98492.40;;;2.69;76.31
61361;BME280;47232;47.506;18.936;2022-11-25T05:40:53;98492.23;;;2.69;76.40
61361;BME280;47232;47.506;18.936;2022-11-25T05:43:24;98500.63;;;2.67;76.32
61361;BME280;47232;47.506;18.936;2022-11-25T05:45:49;98495.17;;;2.63;76.42
61361;BME280;47232;47.506;18.936;2022-11-25T05:48:18;98505.56;;;2.59;76.45
61361;BME280;47232;47.506;18.936;2022-11-25T05:50:43;98500.80;;;2.55;76.52
61361;BME280;47232;47.506;18.936;2022-11-25T05:53:09;98498.49;;;2.53;76.64
61361;BME280;47232;47.506;18.936;2022-11-25T05:55:35;98507.46;;;2.50;76.61
61361;BME280;47232;47.506;18.936;2022-11-25T05:58:01;98507.73;;;2.46;76.51
61361;BME280;47232;47.506;18.936;2022-11-25T06:00:31;98515.16;;;2.43;76.55
61361;BME280;47232;47.506;18.936;2022-11-25T06:03:00;98514.86;;;2.39;76.58
61361;BME280;47232;47.506;18.936;2022-11-25T06:05:25;98520.20;;;2.38;76.62
61361;BME280;47232;47.506;18.936;2022-11-25T06:07:51;98517.61;;;2.37;76.66
61361;BME280;47232;47.506;18.936;2022-11-25T06:10:17;98519.83;;;2.37;76.58
61361;BME280;47232;47.506;18.936;2022-11-25T06:12:43;98523.23;;;2.38;76.71
61361;BME280;47232;47.506;18.936;2022-11-25T06:15:09;98523.42;;;2.40;76.96
61361;BME280;47232;47.506;18.936;2022-11-25T06:17:35;98525.11;;;2.45;77.21
61361;BME280;47232;47.506;18.936;2022-11-25T06:20:05;98524.48;;;2.52;77.32
61361;BME280;47232;47.506;18.936;2022-11-25T06:22:33;98522.89;;;2.59;77.49
61361;BME280;47232;47.506;18.936;2022-11-25T06:24:59;98532.55;;;2.64;77.53
61361;BME280;47232;47.506;18.936;2022-11-25T06:27:24;98528.62;;;2.70;77.50
61361;BME280;47232;47.506;18.936;2022-11-25T06:29:50;98537.69;;;2.75;77.55
61361;BME280;47232;47.506;18.936;2022-11-25T06:32:15;98538.35;;;2.79;77.32
61361;BME280;47232;47.506;18.936;2022-11-25T06:34:41;98541.77;;;2.80;77.09
61361;BME280;47232;47.506;18.936;2022-11-25T06:37:07;98539.05;;;2.79;77.15
61361;BME280;47232;47.506;18.936;2022-11-25T06:39:33;98547.77;;;2.78;77.01
61361;BME280;47232;47.506;18.936;2022-11-25T06:41:59;98551.41;;;2.75;77.00
61361;BME280;47232;47.506;18.936;2022-11-25T06:44:24;98557.88;;;2.72;76.81
61361;BME280;47232;47.506;18.936;2022-11-25T06:46:49;98563.06;;;2.69;76.93
61361;BME280;47232;47.506;18.936;2022-11-25T06:49:18;98564.45;;;2.70;76.96
61361;BME280;47232;47.506;18.936;2022-11-25T06:51:48;98564.74;;;2.74;77.12
61361;BME280;47232;47.506;18.936;2022-11-25T06:54:13;98564.78;;;2.79;77.28
61361;BME280;47232;47.506;18.936;2022-11-25T06:56:39;98563.91;;;2.83;77.29
61361;BME280;47232;47.506;18.936;2022-11-25T06:59:05;98564.60;;;2.88;77.31
61361;BME280;47232;47.506;18.936;2022-11-25T07:01:30;98563.27;;;2.95;77.24
61361;BME280;47232;47.506;18.936;2022-11-25T07:04:02;98567.85;;;3.03;77.32
61361;BME280;47232;47.506;18.936;2022-11-25T07:06:27;98572.25;;;3.09;77.19
61361;BME280;47232;47.506;18.936;2022-11-25T07:08:53;98572.80;;;3.11;77.10
61361;BME280;47232;47.506;18.936;2022-11-25T07:11:22;98574.09;;;3.13;76.89
61361;BME280;47232;47.506;18.936;2022-11-25T07:13:52;98586.67;;;3.15;77.02
61361;BME280;47232;47.506;18.936;2022-11-25T07:16:18;98593.92;;;3.17;76.95
61361;BME280;47232;47.506;18.936;2022-11-25T07:18:43;98593.56;;;3.20;77.17
61361;BME280;47232;47.506;18.936;2022-11-25T07:21:13;98595.48;;;3.21;77.34
61361;BME280;47232;47.506;18.936;2022-11-25T07:23:41;98597.15;;;3.24;77.28
61361;BME280;47232;47.506;18.936;2022-11-25T07:26:15;98600.80;;;3.29;77.38
61361;BME280;47232;47.506;18.936;2022-11-25T07:28:41;98592.33;;;3.35;77.39
61361;BME280;47232;47.506;18.936;2022-11-25T07:33:51;98591.00;;;3.51;77.37
61361;BME280;47232;47.506;18.936;2022-11-25T07:36:17;98588.76;;;3.61;77.70
61361;BME280;47232;47.506;18.936;2022-11-25T07:38:42;98590.63;;;3.72;77.86
61361;BME280;47232;47.506;18.936;2022-11-25T07:41:10;98591.02;;;3.85;77.89
61361;BME280;47232;47.506;18.936;2022-11-25T07:43:37;98594.26;;;3.97;77.58
61361;BME280;47232;47.506;18.936;2022-11-25T07:48:44;98596.67;;;4.18;77.54
61361;BME280;47232;47.506;18.936;2022-11-25T07:51:20;98602.79;;;4.26;77.26
61361;BME280;47232;47.506;18.936;2022-11-25T07:53:48;98602.59;;;4.35;77.11
61361;BME280;47232;47.506;18.936;2022-11-25T07:56:15;98605.80;;;4.44;76.79
61361;BME280;47232;47.506;18.936;2022-11-25T07:58:41;98603.80;;;4.53;76.38
61361;BME280;47232;47.506;18.936;2022-11-25T08:01:08;98602.91;;;4.62;76.28
61361;BME280;47232;47.506;18.936;2022-11-25T08:03:36;98602.66;;;4.71;76.35
61361;BME280;47232;47.506;18.936;2022-11-25T08:06:03;98604.05;;;4.80;75.97
61361;BME280;47232;47.506;18.936;2022-11-25T08:08:29;98609.62;;;4.89;75.99
61361;BME280;47232;47.506;18.936;2022-11-25T08:10:55;98604.92;;;5.01;75.56
61361;BME280;47232;47.506;18.936;2022-11-25T08:13:20;98608.50;;;5.13;75.65
61361;BME280;47232;47.506;18.936;2022-11-25T08:15:46;98616.12;;;5.30;75.46
61361;BME280;47232;47.506;18.936;2022-11-25T08:18:11;98615.23;;;5.46;75.46
61361;BME280;47232;47.506;18.936;2022-11-25T08:20:37;98619.95;;;5.63;75.11
61361;BME280;47232;47.506;18.936;2022-11-25T08:23:02;98617.20;;;5.79;75.10
61361;BME280;47232;47.506;18.936;2022-11-25T08:25:28;98620.55;;;5.96;74.59
61361;BME280;47232;47.506;18.936;2022-11-25T08:27:59;98623.54;;;6.11;74.19
61361;BME280;47232;47.506;18.936;2022-11-25T08:30:25;98628.08;;;6.26;73.68
61361;BME280;47232;47.506;18.936;2022-11-25T08:32:51;98623.95;;;6.39;73.25
61361;BME280;47232;47.506;18.936;2022-11-25T08:35:18;98626.49;;;6.52;72.70
61361;BME280;47232;47.506;18.936;2022-11-25T08:37:44;98626.16;;;6.66;72.15
61361;BME280;47232;47.506;18.936;2022-11-25T08:40:10;98629.34;;;6.78;71.98
61361;BME280;47232;47.506;18.936;2022-11-25T08:42:37;98625.02;;;6.91;72.18
61361;BME280;47232;47.506;18.936;2022-11-25T08:45:04;98621.13;;;7.04;72.02
61361;BME280;47232;47.506;18.936;2022-11-25T08:47:29;98624.50;;;7.17;71.70
61361;BME280;47232;47.506;18.936;2022-11-25T08:49:55;98628.71;;;7.31;71.83
61361;BME280;47232;47.506;18.936;2022-11-25T08:52:21;98625.60;;;7.45;71.60
61361;BME280;47232;47.506;18.936;2022-11-25T08:54:47;98623.66;;;7.62;71.53
61361;BME280;47232;47.506;18.936;2022-11-25T08:57:13;98628.31;;;7.79;71.13
61361;BME280;47232;47.506;18.936;2022-11-25T08:59:39;98620.30;;;8.00;70.85
61361;BME280;47232;47.506;18.936;2022-11-25T09:02:06;98625.02;;;8.19;70.71
61361;BME280;47232;47.506;18.936;2022-11-25T09:04:32;98625.31;;;8.39;70.34
61361;BME280;47232;47.506;18.936;2022-11-25T09:06:58;98624.86;;;8.57;69.68
61361;BME280;47232;47.506;18.936;2022-11-25T09:09:25;98623.30;;;8.73;69.14
61361;BME280;47232;47.506;18.936;2022-11-25T09:11:51;98627.63;;;8.86;68.71
61361;BME280;47232;47.506;18.936;2022-11-25T09:14:16;98632.94;;;9.01;68.32
61361;BME280;47232;47.506;18.936;2022-11-25T09:16:42;98635.57;;;9.15;67.73
61361;BME280;47232;47.506;18.936;2022-11-25T09:19:07;98636.30;;;9.30;67.40
61361;BME280;47232;47.506;18.936;2022-11-25T09:21:32;98636.56;;;9.43;66.88
61361;BME280;47232;47.506;18.936;2022-11-25T09:23:58;98638.95;;;9.57;66.96
61361;BME280;47232;47.506;18.936;2022-11-25T09:26:29;98642.50;;;9.72;66.82
61361;BME280;47232;47.506;18.936;2022-11-25T09:29:01;98640.10;;;9.88;66.69
61361;BME280;47232;47.506;18.936;2022-11-25T09:31:26;98640.14;;;10.03;66.08
61361;BME280;47232;47.506;18.936;2022-11-25T09:33:52;98632.52;;;10.19;65.38
61361;BME280;47232;47.506;18.936;2022-11-25T09:36:19;98630.52;;;10.32;64.83
61361;BME280;47232;47.506;18.936;2022-11-25T09:38:44;98627.42;;;10.46;64.63
61361;BME280;47232;47.506;18.936;2022-11-25T09:47:18;98615.20;;;10.98;63.27
61361;BME280;47232;47.506;18.936;2022-11-25T09:55:30;98612.37;;;11.46;61.11
61361;BME280;47232;47.506;18.936;2022-11-25T10:00:44;98617.83;;;11.70;60.48
61361;BME280;47232;47.506;18.936;2022-11-25T10:03:40;98615.00;;;11.88;60.27
61361;BME280;47232;47.506;18.936;2022-11-25T10:06:16;98620.63;;;12.03;59.92
61361;BME280;47232;47.506;18.936;2022-11-25T10:08:47;98620.26;;;12.18;59.58
61361;BME280;47232;47.506;18.936;2022-11-25T10:14:41;98619.47;;;12.43;58.01
61361;BME280;47232;47.506;18.936;2022-11-25T10:22:19;98622.54;;;12.64;57.26
61361;BME280;47232;47.506;18.936;2022-11-25T10:24:46;98626.79;;;12.65;56.77
61361;BME280;47232;47.506;18.936;2022-11-25T10:27:24;98623.40;;;12.68;56.72
61361;BME280;47232;47.506;18.936;2022-11-25T10:30:01;98617.71;;;12.81;56.77
61361;BME280;47232;47.506;18.936;2022-11-25T10:32:36;98612.38;;;12.96;56.69
61361;BME280;47232;47.506;18.936;2022-11-25T10:35:17;98613.95;;;13.08;55.71
61361;BME280;47232;47.506;18.936;2022-11-25T10:37:44;98619.48;;;13.12;55.31
61361;BME280;47232;47.506;18.936;2022-11-25T10:40:16;98618.98;;;13.18;55.37
61361;BME280;47232;47.506;18.936;2022-11-25T10:42:42;98619.55;;;13.33;55.56
61361;BME280;47232;47.506;18.936;2022-11-25T10:45:09;98616.52;;;13.49;55.45
61361;BME280;47232;47.506;18.936;2022-11-25T10:47:59;98618.70;;;13.67;55.25
61361;BME280;47232;47.506;18.936;2022-11-25T10:50:36;98622.44;;;13.83;54.54
61361;BME280;47232;47.506;18.936;2022-11-25T10:53:13;98623.12;;;13.96;53.88
61361;BME280;47232;47.506;18.936;2022-11-25T11:01:13;98628.89;;;14.20;52.75
61361;BME280;47232;47.506;18.936;2022-11-25T11:03:38;98627.56;;;14.26;52.64
61361;BME280;47232;47.506;18.936;2022-11-25T11:06:04;98633.73;;;14.33;52.50
61361;BME280;47232;47.506;18.936;2022-11-25T11:08:38;98636.19;;;14.39;52.63
61361;BME280;47232;47.506;18.936;2022-11-25T11:11:13;98637.90;;;14.49;51.71
61361;BME280;47232;47.506;18.936;2022-11-25T11:13:39;98639.86;;;14.46;51.87
61361;BME280;47232;47.506;18.936;2022-11-25T11:16:20;98645.86;;;14.50;51.58
61361;BME280;47232;47.506;18.936;2022-11-25T11:18:48;98640.92;;;14.45;51.19
61361;BME280;47232;47.506;18.936;2022-11-25T11:21:33;98640.99;;;14.35;51.40
61361;BME280;47232;47.506;18.936;2022-11-25T11:24:01;98639.92;;;14.37;51.53
61361;BME280;47232;47.506;18.936;2022-11-25T11:26:32;98646.55;;;14.46;51.14
61361;BME280;47232;47.506;18.936;2022-11-25T11:31:33;98647.64;;;14.33;50.74
61361;BME280;47232;47.506;18.936;2022-11-25T11:47:33;98649.21;;;14.16;51.02
61361;BME280;47232;47.506;18.936;2022-11-25T11:53:09;98653.08;;;13.92;51.23
61361;BME280;47232;47.506;18.936;2022-11-25T11:56:06;98652.41;;;13.92;51.18
61361;BME280;47232;47.506;18.936;2022-11-25T11:58:47;98653.70;;;13.78;51.36
61361;BME280;47232;47.506;18.936;2022-11-25T12:04:15;98648.80;;;13.46;52.03
61361;BME280;47232;47.506;18.936;2022-11-25T12:06:47;98647.96;;;13.32;52.34
61361;BME280;47232;47.506;18.936;2022-11-25T12:09:19;98648.23;;;13.19;52.48
61361;BME280;47232;47.506;18.936;2022-11-25T12:11:51;98653.18;;;12.98;52.85
61361;BME280;47232;47.506;18.936;2022-11-25T12:14:48;98653.80;;;12.85;53.32
61361;BME280;47232;47.506;18.936;2022-11-25T12:17:19;98647.84;;;12.71;53.49
61361;BME280;47232;47.506;18.936;2022-11-25T12:25:46;98644.56;;;12.45;54.08
61361;BME280;47232;47.506;18.936;2022-11-25T12:34:01;98646.98;;;12.24;54.85
61361;BME280;47232;47.506;18.936;2022-11-25T12:36:43;98644.77;;;12.20;54.99
61361;BME280;47232;47.506;18.936;2022-11-25T12:41:52;98647.66;;;12.06;55.45
61361;BME280;47232;47.506;18.936;2022-11-25T12:44:23;98643.45;;;12.03;55.38
61361;BME280;47232;47.506;18.936;2022-11-25T12:46:53;98638.07;;;11.99;55.27
61361;BME280;47232;47.506;18.936;2022-11-25T12:49:25;98633.65;;;11.97;55.38
61361;BME280;47232;47.506;18.936;2022-11-25T12:55:05;98629.50;;;11.91;55.52
61361;BME280;47232;47.506;18.936;2022-11-25T13:00:24;98632.45;;;12.30;55.62
61361;BME280;47232;47.506;18.936;2022-11-25T13:08:54;98629.83;;;14.03;54.43
61361;BME280;47232;47.506;18.936;2022-11-25T13:16:51;98624.04;;;15.89;50.74
61361;BME280;47232;47.506;18.936;2022-11-25T13:19:18;98622.74;;;16.34;50.21
61361;BME280;47232;47.506;18.936;2022-11-25T13:24:32;98621.34;;;17.17;47.51
61361;BME280;47232;47.506;18.936;2022-11-25T13:26:59;98623.27;;;17.54;46.82
61361;BME280;47232;47.506;18.936;2022-11-25T13:32:03;98636.81;;;18.22;45.10
61361;BME280;47232;47.506;18.936;2022-11-25T13:34:35;98637.45;;;18.43;43.82
61361;BME280;47232;47.506;18.936;2022-11-25T13:37:01;98641.27;;;18.43;43.43
61361;BME280;47232;47.506;18.936;2022-11-25T13:39:45;98637.95;;;18.58;42.76
61361;BME280;47232;47.506;18.936;2022-11-25T13:42:24;98644.21;;;18.72;42.22
61361;BME280;47232;47.506;18.936;2022-11-25T13:44:55;98646.19;;;18.88;41.65
61361;BME280;47232;47.506;18.936;2022-11-25T13:47:39;98650.17;;;18.82;41.66
61361;BME280;47232;47.506;18.936;2022-11-25T13:52:46;98657.15;;;19.09;41.21
61361;BME280;47232;47.506;18.936;2022-11-25T13:57:45;98663.39;;;19.40;39.83
61361;BME280;47232;47.506;18.936;2022-11-25T14:02:45;98658.89;;;19.62;39.76
61361;BME280;47232;47.506;18.936;2022-11-25T14:24:45;98675.96;;;17.97;40.20
61361;BME280;47232;47.506;18.936;2022-11-25T14:27:21;98681.88;;;17.30;40.75
61361;BME280;47232;47.506;18.936;2022-11-25T14:29:55;98676.58;;;16.67;41.85
61361;BME280;47232;47.506;18.936;2022-11-25T14:32:38;98678.68;;;16.16;42.77
61361;BME280;47232;47.506;18.936;2022-11-25T14:35:10;98679.31;;;15.66;43.72
61361;BME280;47232;47.506;18.936;2022-11-25T14:37:44;98681.63;;;15.20;44.45
61361;BME280;47232;47.506;18.936;2022-11-25T14:40:17;98685.50;;;14.80;45.20
61361;BME280;47232;47.506;18.936;2022-11-25T14:42:47;98684.47;;;14.42;46.02
61361;BME280;47232;47.506;18.936;2022-11-25T14:45:33;98682.89;;;14.07;46.81
61361;BME280;47232;47.506;18.936;2022-11-25T14:51:20;98684.83;;;13.34;48.04
61361;BME280;47232;47.506;18.936;2022-11-25T14:53:47;98683.92;;;12.93;49.06
61361;BME280;47232;47.506;18.936;2022-11-25T14:56:16;98687.27;;;12.64;49.35
61361;BME280;47232;47.506;18.936;2022-11-25T14:58:47;98688.50;;;12.34;50.08
61361;BME280;47232;47.506;18.936;2022-11-25T15:03:48;98692.52;;;11.80;51.25
61361;BME280;47232;47.506;18.936;2022-11-25T15:06:14;98688.92;;;11.53;51.71
61361;BME280;47232;47.506;18.936;2022-11-25T15:08:43;98687.65;;;11.28;52.34
61361;BME280;47232;47.506;18.936;2022-11-25T15:11:18;98692.15;;;11.05;52.82
61361;BME280;47232;47.506;18.936;2022-11-25T15:13:46;98687.97;;;10.80;53.36
61361;BME280;47232;47.506;18.936;2022-11-25T15:16:19;98690.00;;;10.58;53.88